Time;durP1;ratioP1;P1;durP2;ratioP2;P2;SDS_P1;SDS_P2;PMS_P1;PMS_P2;Temp;Humidity;BMP_temperature;BMP_pressure;BME280_temperature;BME280_humidity;BME280_pressure;Samples;Min_cycle;Max_cycle;Signal;HPM_P1;HPM_P2
2021/05/06 00:01:35;;;;;;;4.80;1.72;;;;;;;14.20;51.03;99532.70;1715447;80;21239;-67
2021/05/06 00:33:07;;;;;;;;;;;;;;;13.73;51.95;99506.94;1709198;82;21152;-67
2021/05/06 00:35:36;;;;;;;3.65;1.42;;;;;;;13.70;52.14;99501.50;1702879;82;20276;-66
2021/05/06 00:38:13;;;;;;;3.42;1.35;;;;;;;13.64;52.35;99500.83;1702038;82;21227;-67
2021/05/06 00:44:04;;;;;;;3.10;0.88;;;;;;;13.62;52.37;99492.73;1687429;82;21109;-66
2021/05/06 01:04:57;;;;;;;3.33;1.20;;;;;;;13.66;52.42;99474.23;1863245;75;22716;-65
2021/05/06 01:20:46;;;;;;;3.70;1.35;;;;;;;13.31;52.99;99460.28;1903692;73;22662;-65
2021/05/06 01:23:15;;;;;;;3.47;1.35;;;;;;;13.19;53.32;99461.09;1843837;76;21175;-65
2021/05/06 01:25:52;;;;;;;3.70;1.32;;;;;;;13.17;53.37;99465.22;1818832;76;21199;-66
2021/05/06 01:28:26;;;;;;;3.85;1.57;;;;;;;13.19;53.30;99462.41;1830265;76;22746;-65
2021/05/06 01:36:04;;;;;;;3.37;1.37;;;;;;;13.13;53.33;99464.38;1745368;80;21136;-65
2021/05/06 01:38:57;;;;;;;4.03;1.45;;;;;;;13.13;53.34;99470.50;1758776;79;21622;-64
2021/05/06 01:43:57;;;;;;;3.40;1.25;;;;;;;13.11;53.28;99467.20;1699722;82;21193;-67
2021/05/06 02:00:11;;;;;;;3.30;1.22;;;;;;;13.01;53.38;99435.65;1766557;78;21760;-68
2021/05/06 02:02:41;;;;;;;5.33;1.45;;;;;;;13.01;53.45;99448.00;1748299;79;21136;-66
2021/05/06 02:05:10;;;;;;;3.85;1.52;;;;;;;12.97;53.47;99448.83;1745807;81;21203;-67
2021/05/06 02:07:40;;;;;;;3.72;1.60;;;;;;;12.97;53.47;99446.19;1750292;81;21187;-67
2021/05/06 02:10:11;;;;;;;3.27;1.07;;;;;;;12.99;53.58;99432.83;1739648;81;21258;-67
2021/05/06 02:12:39;;;;;;;4.15;1.72;;;;;;;13.01;53.58;99429.05;1752715;81;21232;-67
2021/05/06 02:15:20;;;;;;;2.58;1.00;;;;;;;13.01;53.50;99423.77;1734739;80;21175;-67
2021/05/06 02:17:46;;;;;;;8.68;2.00;;;;;;;13.00;53.52;99422.10;1717292;82;21980;-67
2021/05/06 02:20:15;;;;;;;3.58;1.35;;;;;;;13.00;53.53;99421.28;1760183;79;21171;-68
2021/05/06 02:22:46;;;;;;;4.42;1.50;;;;;;;12.98;53.63;99425.41;1736031;81;21706;-67
2021/05/06 02:25:13;;;;;;;3.65;1.47;;;;;;;12.96;53.68;99423.91;1754913;80;21642;-67
2021/05/06 02:27:41;;;;;;;4.65;1.87;;;;;;;12.91;53.81;99425.73;1743160;81;21152;-66
2021/05/06 02:30:11;;;;;;;2.80;1.00;;;;;;;12.87;53.93;99422.24;1756858;79;21221;-68
2021/05/06 02:32:38;;;;;;;4.97;1.47;;;;;;;12.85;54.04;99415.80;1703641;82;21188;-67
2021/05/06 02:35:07;;;;;;;4.65;1.50;;;;;;;12.83;54.08;99428.34;1702733;82;21257;-66
2021/05/06 02:37:34;;;;;;;4.83;1.92;;;;;;;12.78;54.27;99422.22;1709248;82;21198;-68
2021/05/06 02:40:02;;;;;;;4.30;1.62;;;;;;;12.77;54.21;99421.05;1703827;82;21121;-66
2021/05/06 02:42:29;;;;;;;4.37;1.37;;;;;;;12.74;54.35;99422.22;1719953;81;22498;-68
2021/05/06 02:44:56;;;;;;;4.87;1.70;;;;;;;12.70;54.44;99423.52;1727217;81;21582;-68
2021/05/06 02:47:24;;;;;;;4.65;1.52;;;;;;;12.66;54.59;99430.11;1726091;81;21264;-68
2021/05/06 02:49:53;;;;;;;6.25;1.35;;;;;;;12.63;54.64;99430.42;1728098;81;21139;-67
2021/05/06 02:52:32;;;;;;;4.12;1.45;;;;;;;12.59;54.80;99430.39;1702721;83;21179;-68
2021/05/06 02:55:13;;;;;;;3.77;1.45;;;;;;;12.56;55.00;99433.38;1727272;82;21127;-67
2021/05/06 02:57:42;;;;;;;4.75;1.62;;;;;;;12.52;55.05;99436.80;1677841;81;21694;-68
2021/05/06 03:02:56;;;;;;;3.58;1.30;;;;;;;12.50;55.21;99432.17;1749433;80;21223;-65
2021/05/06 03:05:28;;;;;;;4.00;1.70;;;;;;;12.50;55.30;99414.20;1714684;82;21208;-67
2021/05/06 03:08:13;;;;;;;4.60;1.72;;;;;;;12.50;55.41;99407.61;1702636;83;21140;-68
2021/05/06 03:11:08;;;;;;;4.17;1.62;;;;;;;12.50;55.41;99404.47;1741150;81;21176;-63
2021/05/06 03:24:19;;;;;;;4.70;1.45;;;;;;;12.54;55.33;99422.13;1745100;80;21194;-69
2021/05/06 03:26:47;;;;;;;3.30;1.05;;;;;;;12.57;55.29;99433.19;1716503;82;21646;-65
2021/05/06 03:29:21;;;;;;;3.98;1.42;;;;;;;12.60;55.11;99435.51;1734058;81;21651;-67
2021/05/06 03:32:05;;;;;;;3.70;1.40;;;;;;;12.66;55.18;99436.70;1718031;80;21114;-65
2021/05/06 04:36:45;;;;;;;4.25;1.45;;;;;;;13.04;53.96;99526.91;1765675;79;21168;-65
2021/05/06 04:39:00;;;;;;;4.20;1.45;;;;;;;13.14;53.39;99507.80;1804662;77;21649;-65
2021/05/06 04:41:44;;;;;;;7.10;1.40;;;;;;;13.20;53.28;99500.56;1796355;78;21030;-64
2021/05/06 04:55:30;;;;;;;4.50;1.43;;;;;;;13.52;52.48;99514.85;1797616;77;21152;-64
2021/05/06 05:05:31;;;;;;;;;;;;;;;13.70;52.05;99507.26;1791476;78;21197;-64
2021/05/06 05:08:09;;;;;;;4.85;1.40;;;;;;;13.70;51.98;99510.75;1751040;79;20332;-61
2021/05/06 05:10:46;;;;;;;5.03;1.65;;;;;;;13.67;52.38;99512.90;1787400;78;21179;-64
2021/05/06 05:13:39;;;;;;;;;;;;;;;13.69;52.46;99500.34;1767973;78;21238;-61
2021/05/06 05:18:57;;;;;;;5.33;1.15;;;;;;;13.64;52.44;99506.61;1764353;80;21230;-60
2021/05/06 05:23:49;;;;;;;4.97;1.45;;;;;;;13.71;52.38;99521.64;1759960;79;21196;-61
2021/05/06 05:26:15;;;;;;;4.60;1.32;;;;;;;13.71;52.28;99528.25;1779618;79;21104;-62
2021/05/06 05:28:44;;;;;;;5.03;1.25;;;;;;;13.72;52.43;99538.34;1786900;78;21225;-61
2021/05/06 05:31:12;;;;;;;3.08;1.10;;;;;;;13.71;52.56;99534.04;1750994;80;21207;-65
2021/05/06 05:33:53;;;;;;;6.78;2.52;;;;;;;13.74;52.72;99533.72;1793138;78;21131;-67
2021/05/06 05:36:21;;;;;;;3.35;1.25;;;;;;;13.80;52.66;99535.71;1775099;78;21196;-63
2021/05/06 05:39:06;;;;;;;4.15;1.60;;;;;;;13.85;52.40;99536.52;1776799;79;21195;-69
2021/05/06 05:55:17;;;;;;;;;;;;;;;14.21;51.69;99543.63;1749247;80;21243;-69
2021/05/06 05:57:51;;;;;;;3.62;1.52;;;;;;;14.25;51.66;99540.14;1783328;78;20273;-72
2021/05/06 06:00:20;;;;;;;4.53;1.60;;;;;;;14.22;51.77;99547.94;1782679;78;21238;-64
2021/05/06 06:02:47;;;;;;;7.00;1.70;;;;;;;14.27;52.00;99565.46;1814539;78;21599;-64
2021/05/06 06:05:14;;;;;;;4.03;1.95;;;;;;;14.32;51.77;99542.44;1775460;78;21698;-72
2021/05/06 06:07:43;;;;;;;4.67;1.65;;;;;;;14.35;51.76;99555.34;1790360;77;21625;-65
2021/05/06 06:10:11;;;;;;;6.58;1.72;;;;;;;14.37;51.70;99556.50;1824066;77;21877;-66
2021/05/06 06:12:38;;;;;;;5.55;1.65;;;;;;;14.36;51.56;99583.47;1809797;77;21183;-66
2021/05/06 06:15:11;;;;;;;4.87;1.62;;;;;;;14.36;51.54;99581.33;1743781;79;21226;-71
2021/05/06 06:17:41;;;;;;;9.58;1.67;;;;;;;14.34;51.66;99576.68;1775652;79;21376;-68
2021/05/06 06:21:23;;;;;;;5.90;1.98;;;;;;;14.38;51.92;99584.13;1834799;76;23606;-69
2021/05/06 06:23:50;;;;;;;4.50;1.70;;;;;;;14.38;51.75;99598.68;1799007;79;21172;-67
2021/05/06 06:26:18;;;;;;;4.55;1.55;;;;;;;14.44;51.72;99594.53;1742816;81;21477;-60
2021/05/06 06:28:49;;;;;;;3.83;1.45;;;;;;;14.49;51.69;99601.00;1748574;80;21049;-68
2021/05/06 06:31:29;;;;;;;5.42;1.87;;;;;;;14.54;51.63;99596.53;1799582;77;21125;-66
2021/05/06 06:33:56;;;;;;;5.40;2.40;;;;;;;14.62;51.80;99597.03;1803603;77;21132;-64
2021/05/06 06:36:23;;;;;;;3.80;1.70;;;;;;;14.75;51.38;99597.84;1797474;77;21162;-61
2021/05/06 06:38:55;;;;;;;5.95;1.98;;;;;;;14.84;51.43;99611.38;1796910;79;21357;-66
2021/05/06 06:41:23;;;;;;;5.37;1.90;;;;;;;14.92;51.29;99608.70;1796551;79;21058;-71
2021/05/06 06:43:53;;;;;;;6.45;2.20;;;;;;;15.01;51.41;99603.73;1801569;79;21136;-67
2021/05/06 06:46:21;;;;;;;4.75;2.27;;;;;;;15.08;51.26;99603.02;1801522;79;21180;-70
2021/05/06 06:48:48;;;;;;;5.83;2.40;;;;;;;15.11;51.02;99611.45;1773479;79;21230;-64
2021/05/06 06:51:16;;;;;;;7.17;2.27;;;;;;;15.11;51.30;99611.96;1744381;82;21665;-67
2021/05/06 06:53:44;;;;;;;5.30;2.15;;;;;;;15.12;51.58;99628.20;1745871;81;21726;-68
2021/05/06 06:56:11;;;;;;;6.15;2.72;;;;;;;15.10;51.54;99623.58;1716855;81;21183;-72
2021/05/06 06:58:40;;;;;;;5.95;2.00;;;;;;;15.06;51.63;99617.77;1798315;79;21154;-68
2021/05/06 07:01:07;;;;;;;5.22;1.75;;;;;;;15.03;51.74;99625.57;1773280;79;21203;-72
2021/05/06 07:03:35;;;;;;;6.53;1.98;;;;;;;14.99;51.81;99618.13;1772040;79;21208;-67
2021/05/06 07:06:03;;;;;;;7.08;1.98;;;;;;;14.94;51.88;99624.44;1796171;79;21196;-70
2021/05/06 07:08:37;;;;;;;8.05;2.40;;;;;;;14.92;52.15;99641.82;1708885;82;21242;-71
2021/05/06 07:11:06;;;;;;;4.85;1.82;;;;;;;14.85;52.29;99644.31;1697845;81;21574;-56
2021/05/06 07:13:34;;;;;;;5.50;2.37;;;;;;;14.81;52.85;99649.63;1746363;80;21654;-62
2021/05/06 07:16:05;;;;;;;5.25;2.33;;;;;;;14.80;52.88;99655.91;1745183;80;21325;-66
2021/05/06 07:18:33;;;;;;;5.70;2.27;;;;;;;14.79;53.00;99660.91;1798300;77;21207;-67
2021/05/06 07:21:05;;;;;;;6.25;2.08;;;;;;;14.75;53.28;99668.02;1799308;77;21175;-66
2021/05/06 07:23:34;;;;;;;5.70;2.27;;;;;;;14.76;53.33;99669.17;1761100;80;21191;-61
2021/05/06 07:26:03;;;;;;;5.35;2.20;;;;;;;14.82;53.58;99676.94;1743759;81;21144;-65
2021/05/06 07:28:40;;;;;;;6.85;3.22;;;;;;;14.90;54.15;99679.58;1794972;77;21579;-65
2021/05/06 07:31:11;;;;;;;4.97;2.42;;;;;;;15.02;54.34;99664.16;1800965;79;21144;-65
2021/05/06 07:33:43;;;;;;;5.72;2.27;;;;;;;15.13;54.48;99674.88;1801636;79;21214;-63
2021/05/06 07:36:12;;;;;;;4.05;2.10;;;;;;;15.23;54.25;99677.68;1765733;79;21136;-59
2021/05/06 07:38:41;;;;;;;4.75;2.40;;;;;;;15.34;53.84;99684.42;1763519;79;21167;-60
2021/05/06 07:41:12;;;;;;;5.08;2.42;;;;;;;15.42;53.31;99690.21;1770903;79;21239;-65
2021/05/06 07:43:43;;;;;;;4.40;1.85;;;;;;;15.41;53.10;99707.92;1802050;79;21340;-61
2021/05/06 07:46:13;;;;;;;4.45;1.82;;;;;;;15.29;53.63;99707.16;1774825;79;21211;-59
2021/05/06 07:48:42;;;;;;;4.90;1.80;;;;;;;15.14;54.20;99721.59;1802526;79;21175;-60
2021/05/06 07:51:12;;;;;;;4.60;1.30;;;;;;;15.06;54.47;99730.37;1796301;79;21108;-63
2021/05/06 07:53:48;;;;;;;4.05;1.60;;;;;;;14.97;54.25;99737.50;1803320;79;22107;-63
2021/05/06 07:56:13;;;;;;;4.35;1.30;;;;;;;14.86;55.34;99734.71;1794876;77;21187;-60
2021/05/06 07:58:41;;;;;;;4.28;1.37;;;;;;;14.78;54.79;99744.48;1797571;79;21186;-61
2021/05/06 08:01:09;;;;;;;3.77;1.45;;;;;;;14.68;55.00;99746.79;1796394;79;21238;-60
2021/05/06 08:03:37;;;;;;;3.17;1.00;;;;;;;14.64;54.69;99760.04;1796746;79;21532;-64
2021/05/06 08:06:06;;;;;;;6.17;0.82;;;;;;;14.57;54.92;99765.61;1734900;80;22485;-58
2021/05/06 08:08:33;;;;;;;3.05;0.70;;;;;;;14.57;53.29;99764.28;1744559;81;21191;-60
2021/05/06 08:11:02;;;;;;;2.42;0.72;;;;;;;14.59;52.21;99772.94;1744623;81;21601;-63
2021/05/06 08:13:30;;;;;;;1.80;0.53;;;;;;;14.63;52.45;99791.47;1769612;79;21191;-61
2021/05/06 08:15:57;;;;;;;2.35;0.70;;;;;;;14.63;52.76;99791.47;1771962;79;21113;-61
2021/05/06 08:18:25;;;;;;;2.17;0.60;;;;;;;14.66;52.67;99790.33;1801124;79;21386;-60
2021/05/06 08:20:52;;;;;;;3.52;0.60;;;;;;;14.70;52.72;99769.13;1776612;79;21195;-62
2021/05/06 08:23:21;;;;;;;5.22;0.80;;;;;;;14.76;52.85;99788.82;1796604;79;21144;-65
2021/05/06 08:25:49;;;;;;;2.15;0.70;;;;;;;14.76;53.18;99784.84;1801579;79;21132;-64
2021/05/06 08:28:18;;;;;;;2.35;0.70;;;;;;;14.78;52.65;99792.98;1798341;77;21163;-62
2021/05/06 08:30:47;;;;;;;2.75;0.72;;;;;;;14.82;52.56;99784.20;1767097;79;21145;-62
2021/05/06 08:33:16;;;;;;;3.50;0.65;;;;;;;14.88;52.23;99790.17;1792028;79;21167;-64
2021/05/06 08:35:43;;;;;;;2.58;0.88;;;;;;;14.88;52.43;99784.88;1799023;77;21202;-62
2021/05/06 08:38:11;;;;;;;3.10;0.80;;;;;;;14.90;52.28;99782.88;1799778;79;21228;-62
2021/05/06 08:40:38;;;;;;;2.67;0.95;;;;;;;14.93;51.89;99795.80;1796257;77;21160;-63
2021/05/06 08:43:09;;;;;;;2.52;0.80;;;;;;;14.90;51.99;99797.45;1801399;79;23079;-63
2021/05/06 08:45:45;;;;;;;2.05;0.60;;;;;;;14.89;51.90;99805.56;1801543;79;21663;-61
2021/05/06 08:48:07;;;;;;;2.65;0.82;;;;;;;14.86;51.76;99815.97;1796668;79;21171;-62
2021/05/06 08:50:36;;;;;;;1.95;0.70;;;;;;;14.79;51.20;99822.45;1796126;79;21200;-61
2021/05/06 08:53:03;;;;;;;1.75;0.57;;;;;;;14.66;51.13;99825.57;1800786;79;21100;-62
2021/05/06 08:55:35;;;;;;;1.52;0.50;;;;;;;14.53;50.81;99813.27;1732591;79;21216;-62
2021/05/06 08:58:04;;;;;;;2.65;0.47;;;;;;;14.41;51.58;99822.01;1790736;79;21219;-64
2021/05/06 09:00:32;;;;;;;2.83;0.75;;;;;;;14.41;52.73;99835.75;1768128;79;21175;-64
2021/05/06 09:03:01;;;;;;;1.32;0.37;;;;;;;14.41;53.47;99844.51;1799577;79;21756;-63
2021/05/06 09:05:35;;;;;;;3.08;0.80;;;;;;;14.45;53.12;99860.89;1808704;79;21156;-64
2021/05/06 09:08:03;;;;;;;3.80;0.70;;;;;;;14.36;51.54;99871.13;1771130;79;21167;-64
2021/05/06 09:10:36;;;;;;;3.22;0.72;;;;;;;14.24;50.66;99878.50;1774656;79;21203;-63
2021/05/06 09:13:04;;;;;;;2.27;0.60;;;;;;;14.15;50.83;99868.38;1792054;79;21592;-64
2021/05/06 09:15:32;;;;;;;1.52;0.50;;;;;;;14.12;51.45;99864.72;1742583;81;21610;-64
2021/05/06 09:17:59;;;;;;;2.70;0.78;;;;;;;14.16;51.57;99858.14;1693495;82;21630;-65
2021/05/06 09:20:27;;;;;;;4.00;0.80;;;;;;;14.25;51.49;99864.30;1748498;80;21202;-62
2021/05/06 09:22:57;;;;;;;2.15;0.60;;;;;;;14.33;51.44;99870.13;1722296;81;21492;-63
2021/05/06 09:25:36;;;;;;;2.47;0.60;;;;;;;14.41;51.30;99865.68;1748683;81;21574;-62
2021/05/06 09:28:19;;;;;;;2.65;0.70;;;;;;;14.50;50.91;99862.56;1736223;80;21171;-62
2021/05/06 09:31:06;;;;;;;1.92;0.65;;;;;;;14.60;50.62;99855.34;1727225;81;22180;-62
2021/05/06 09:33:40;;;;;;;2.45;0.80;;;;;;;14.79;50.69;99857.36;1750884;81;21381;-61
2021/05/06 09:36:15;;;;;;;4.58;0.68;;;;;;;14.99;49.75;99856.55;1751873;81;21202;-59
2021/05/06 09:38:46;;;;;;;1.05;0.40;;;;;;;15.10;49.13;99866.84;1739117;81;21188;-62
2021/05/06 09:41:16;;;;;;;2.22;0.65;;;;;;;15.14;49.11;99866.83;1758786;79;21249;-58
2021/05/06 09:43:43;;;;;;;1.50;0.42;;;;;;;15.17;49.08;99867.83;1764707;79;22338;-62
2021/05/06 09:49:27;;;;;;;4.92;1.15;;;;;;;15.19;48.63;99876.94;1851875;74;22354;-65
2021/05/06 09:52:00;;;;;;;2.42;0.90;;;;;;;15.10;48.68;99877.44;1808314;76;21176;-63
2021/05/06 09:54:30;;;;;;;3.52;0.90;;;;;;;15.01;48.88;99879.26;1800143;78;21657;-63
2021/05/06 09:57:03;;;;;;;2.45;0.78;;;;;;;14.97;48.49;99881.06;1797558;78;21104;-63
2021/05/06 09:59:35;;;;;;;2.33;0.90;;;;;;;14.90;48.88;99879.56;1822060;76;21182;-64
2021/05/06 10:02:11;;;;;;;2.15;0.80;;;;;;;14.87;49.12;99885.19;1801208;77;21187;-64
2021/05/06 10:04:41;;;;;;;3.85;1.12;;;;;;;14.91;48.84;99885.69;1796320;78;21423;-61
2021/05/06 10:07:25;;;;;;;2.42;0.70;;;;;;;14.96;48.91;99888.20;1716814;80;22068;-62
2021/05/06 10:10:01;;;;;;;4.40;1.05;;;;;;;15.06;48.66;99890.67;1774645;78;21605;-64
2021/05/06 10:12:37;;;;;;;2.52;0.78;;;;;;;15.19;47.96;99888.87;1777493;79;21185;-63
2021/05/06 10:15:09;;;;;;;3.22;1.10;;;;;;;15.28;47.88;99889.22;1765425;79;21183;-63
2021/05/06 10:17:38;;;;;;;2.10;0.80;;;;;;;15.35;47.78;99896.01;1731991;80;22111;-63
2021/05/06 10:20:08;;;;;;;2.33;0.85;;;;;;;15.42;46.98;99893.84;1766210;79;22257;-63
2021/05/06 10:22:35;;;;;;;3.37;1.10;;;;;;;15.49;47.19;99891.86;1736737;80;21203;-64
2021/05/06 10:25:06;;;;;;;4.83;1.20;;;;;;;15.59;46.79;99881.39;1754555;80;21164;-62
2021/05/06 10:27:33;;;;;;;4.97;0.90;;;;;;;15.75;46.49;99885.89;1760110;80;21141;-63
2021/05/06 10:30:04;;;;;;;3.75;0.88;;;;;;;15.88;46.63;99885.34;1768094;80;21174;-64
2021/05/06 10:32:32;;;;;;;2.98;0.82;;;;;;;16.03;45.93;99891.30;1728449;79;21964;-64
2021/05/06 10:35:08;;;;;;;4.17;1.00;;;;;;;16.15;46.14;99900.53;1763742;79;21528;-64
2021/05/06 10:37:38;;;;;;;3.75;1.47;;;;;;;16.16;41.21;99897.71;1765145;80;21124;-63
2021/05/06 10:40:23;;;;;;;4.12;1.02;;;;;;;16.12;41.21;99903.52;1752679;79;21494;-63
2021/05/06 10:43:19;;;;;;;3.58;1.10;;;;;;;16.08;41.00;99907.02;1874792;76;22617;-61
2021/05/06 10:46:03;;;;;;;4.60;1.05;;;;;;;16.03;40.44;99902.73;1775009;78;21135;-61
2021/05/06 10:49:02;;;;;;;2.65;0.98;;;;;;;16.08;40.99;99900.39;1790311;77;22888;-60
2021/05/06 10:51:40;;;;;;;3.30;1.20;;;;;;;16.17;40.74;99906.49;1756165;80;21149;-62
2021/05/06 10:54:42;;;;;;;4.83;1.50;;;;;;;16.24;40.13;99910.14;1801593;78;21187;-65
2021/05/06 10:57:19;;;;;;;3.17;1.25;;;;;;;16.28;40.34;99903.48;1790037;79;21188;-61
2021/05/06 10:59:49;;;;;;;2.42;0.95;;;;;;;16.34;40.12;99903.31;1795378;79;21587;-59
2021/05/06 11:02:42;;;;;;;5.53;1.42;;;;;;;16.40;39.62;99901.27;1766389;79;21893;-64
2021/05/06 11:05:27;;;;;;;3.98;1.25;;;;;;;16.44;40.00;99897.77;1801830;77;21358;-61
2021/05/06 11:08:19;;;;;;;2.52;0.90;;;;;;;16.58;39.69;99897.56;1787832;79;20986;-62
2021/05/06 11:10:52;;;;;;;3.98;1.15;;;;;;;16.76;38.72;99898.12;1794020;79;21174;-62
2021/05/06 11:13:22;;;;;;;7.08;1.65;;;;;;;16.83;38.90;99901.73;1805082;79;21144;-62
2021/05/06 11:15:51;;;;;;;3.85;1.30;;;;;;;16.86;38.44;99900.56;1771470;79;21260;-61
2021/05/06 11:18:46;;;;;;;3.90;1.05;;;;;;;16.83;38.46;99900.39;1768297;79;21155;-62
2021/05/06 11:21:34;;;;;;;3.58;1.10;;;;;;;16.83;38.42;99898.25;1812417;79;21183;-62
2021/05/06 11:24:21;;;;;;;2.47;0.95;;;;;;;16.77;38.14;99911.72;1769094;79;21185;-63
2021/05/06 11:27:12;;;;;;;14.10;2.53;;;;;;;16.70;38.11;99916.08;1762690;79;21163;-62
2021/05/06 11:29:42;;;;;;;4.75;1.25;;;;;;;16.63;38.28;99909.81;1809041;79;21682;-62
2021/05/06 11:32:35;;;;;;;3.60;1.22;;;;;;;16.66;38.11;99908.96;1767262;79;21203;-61
2021/05/06 11:35:04;;;;;;;2.92;1.15;;;;;;;16.70;38.35;99918.73;1694894;83;21201;-64
2021/05/06 11:37:32;;;;;;;4.33;1.15;;;;;;;16.71;38.60;99909.78;1779628;76;21175;-62
2021/05/06 11:40:06;;;;;;;3.98;1.35;;;;;;;16.79;38.06;99909.70;1828546;77;21179;-60
2021/05/06 11:42:39;;;;;;;2.98;1.10;;;;;;;16.87;37.30;99921.64;1850446;76;21223;-61
2021/05/06 11:45:19;;;;;;;2.72;0.82;;;;;;;16.94;37.33;99917.79;1835384;77;21191;-62
2021/05/06 11:47:46;;;;;;;5.47;1.02;;;;;;;17.06;37.26;99919.54;1830642;77;21199;-62
2021/05/06 11:50:16;;;;;;;3.33;1.05;;;;;;;17.21;36.51;99927.58;1841509;75;21577;-61
2021/05/06 11:52:44;;;;;;;3.50;1.10;;;;;;;17.33;36.38;99923.52;1838128;75;21194;-58
2021/05/06 11:55:34;;;;;;;3.37;0.93;;;;;;;17.40;35.87;99919.14;1834769;77;21734;-55
2021/05/06 11:58:02;;;;;;;3.75;1.00;;;;;;;17.45;35.46;99922.59;1803942;77;21194;-62
2021/05/06 12:00:31;;;;;;;2.62;0.72;;;;;;;17.53;34.84;99911.05;1843262;77;21151;-63
2021/05/06 12:03:08;;;;;;;1.87;0.62;;;;;;;17.67;35.13;99902.77;1841623;76;21191;-62
2021/05/06 12:05:55;;;;;;;3.20;1.17;;;;;;;17.89;35.42;99908.58;1841688;76;21093;-61
2021/05/06 12:08:30;;;;;;;4.17;0.80;;;;;;;18.11;34.37;99904.69;1838891;77;22003;-62
2021/05/06 12:11:04;;;;;;;2.50;0.72;;;;;;;18.25;34.13;99911.83;1853558;77;21203;-62
2021/05/06 12:13:34;;;;;;;3.42;1.10;;;;;;;18.33;32.66;99910.92;1834112;77;22490;-65
2021/05/06 12:16:23;;;;;;;3.05;0.98;;;;;;;18.32;32.27;99920.73;1835797;75;21047;-62
2021/05/06 12:19:03;;;;;;;2.20;0.70;;;;;;;18.29;32.72;99907.81;1842452;75;21179;-61
2021/05/06 12:21:39;;;;;;;2.90;0.70;;;;;;;18.36;32.57;99910.56;1807666;77;21186;-61
2021/05/06 12:24:11;;;;;;;2.50;0.78;;;;;;;18.40;32.20;99917.16;1833514;76;21186;-61
2021/05/06 12:26:40;;;;;;;3.17;0.98;;;;;;;18.41;32.24;99916.64;1843082;75;21121;-60
2021/05/06 12:29:20;;;;;;;2.85;1.00;;;;;;;18.37;32.18;99911.70;1836835;76;21080;-61
2021/05/06 12:31:51;;;;;;;2.95;0.88;;;;;;;18.35;32.85;99907.05;1837710;77;21169;-60
2021/05/06 12:34:22;;;;;;;2.85;1.15;;;;;;;18.34;33.11;99906.75;1842031;75;22277;-59
2021/05/06 12:36:59;;;;;;;4.20;0.98;;;;;;;18.36;33.18;99904.72;1848341;75;21176;-60
2021/05/06 12:39:28;;;;;;;2.15;0.70;;;;;;;18.45;32.92;99908.62;1779580;79;21239;-62
2021/05/06 12:42:04;;;;;;;3.83;1.17;;;;;;;18.53;32.24;99920.50;1766328;79;21149;-61
2021/05/06 12:44:40;;;;;;;2.67;0.85;;;;;;;18.51;31.62;99907.37;1766919;79;21093;-61
2021/05/06 12:47:27;;;;;;;1.95;0.68;;;;;;;18.44;31.94;99912.28;1754133;80;22689;-60
2021/05/06 12:50:21;;;;;;;4.22;0.93;;;;;;;18.49;31.72;99907.22;1801139;78;21192;-67
2021/05/06 12:52:52;;;;;;;2.70;0.93;;;;;;;18.64;30.82;99906.67;1770436;79;21167;-63
2021/05/06 12:55:30;;;;;;;2.85;0.90;;;;;;;18.78;30.94;99896.17;1773778;79;21178;-63
2021/05/06 12:58:25;;;;;;;3.20;0.98;;;;;;;18.96;31.04;99893.94;1749546;80;21169;-64
2021/05/06 13:00:58;;;;;;;3.47;1.05;;;;;;;19.19;31.07;99890.27;1746606;80;21242;-67
2021/05/06 13:03:35;;;;;;;6.00;1.30;;;;;;;19.40;30.72;99892.93;1782244;80;21224;-65
2021/05/06 13:06:04;;;;;;;3.00;1.00;;;;;;;19.53;29.96;99887.37;1779965;80;21651;-65
2021/05/06 13:08:43;;;;;;;7.12;1.30;;;;;;;19.54;30.01;99890.37;1779477;80;21230;-67
2021/05/06 13:11:13;;;;;;;3.67;1.05;;;;;;;19.52;29.33;99891.05;1775559;80;21204;-63
2021/05/06 13:13:48;;;;;;;7.08;1.65;;;;;;;19.37;29.14;99895.16;1780618;79;22117;-66
2021/05/06 13:16:17;;;;;;;3.33;1.30;;;;;;;19.24;29.59;99890.01;1775487;79;21223;-64
2021/05/06 13:19:04;;;;;;;6.90;1.22;;;;;;;19.27;29.28;99896.81;1753750;80;21194;-65
2021/05/06 13:21:33;;;;;;;2.50;1.00;;;;;;;19.30;29.82;99901.77;1783860;80;21195;-63
2021/05/06 13:24:03;;;;;;;3.47;1.22;;;;;;;19.34;29.56;99907.02;1782918;80;21625;-67
2021/05/06 13:26:40;;;;;;;9.18;1.52;;;;;;;19.35;29.76;99902.50;1765581;80;21226;-65
2021/05/06 13:29:15;;;;;;;3.47;1.17;;;;;;;19.39;29.51;99898.45;1781356;80;21391;-65
2021/05/06 13:31:44;;;;;;;4.27;1.27;;;;;;;19.30;29.24;99897.77;1745518;80;21171;-60
2021/05/06 13:34:21;;;;;;;5.85;1.70;;;;;;;19.30;29.24;99897.77;1760530;80;21587;-63
2021/05/06 13:37:01;;;;;;;3.60;1.22;;;;;;;19.17;29.48;99908.31;1781432;78;21128;-65
2021/05/06 13:39:34;;;;;;;2.87;1.00;;;;;;;19.01;29.89;99917.37;1781239;80;21128;-64
2021/05/06 13:42:02;;;;;;;2.60;1.07;;;;;;;18.87;29.51;99907.90;1781400;80;21155;-64
2021/05/06 13:44:30;;;;;;;4.47;1.72;;;;;;;18.80;30.03;99907.49;1748967;80;21184;-66
2021/05/06 13:47:02;;;;;;;3.83;1.25;;;;;;;19.04;29.89;99905.81;1755412;80;21178;-66
2021/05/06 13:49:31;;;;;;;4.50;1.40;;;;;;;19.99;29.16;99900.27;1749196;80;21188;-65
2021/05/06 13:52:00;;;;;;;4.55;1.30;;;;;;;20.72;27.76;99894.44;1750640;78;21222;-64
2021/05/06 13:54:28;;;;;;;4.67;1.67;;;;;;;21.34;27.06;99889.28;1774209;80;21170;-66
2021/05/06 13:56:57;;;;;;;3.45;0.80;;;;;;;22.29;25.69;99884.66;1776014;80;21148;-68
2021/05/06 13:59:25;;;;;;;3.25;1.12;;;;;;;23.61;24.26;99893.46;1779440;80;21135;-68
2021/05/06 14:01:54;;;;;;;2.52;0.82;;;;;;;24.78;21.87;99885.35;1774731;78;21223;-65
2021/05/06 14:04:22;;;;;;;3.22;1.00;;;;;;;25.75;21.01;99884.22;1776969;80;21235;-66
2021/05/06 14:06:50;;;;;;;3.75;1.25;;;;;;;26.19;19.96;99883.02;1745093;80;21163;-65
2021/05/06 14:09:19;;;;;;;3.75;1.57;;;;;;;26.10;20.36;99884.73;1773793;80;21189;-65
2021/05/06 14:11:48;;;;;;;3.42;1.20;;;;;;;26.29;20.56;99889.97;1760181;80;21141;-64
2021/05/06 14:14:17;;;;;;;3.05;1.00;;;;;;;26.84;19.50;99894.84;1778489;80;21100;-69
2021/05/06 14:16:45;;;;;;;2.75;0.90;;;;;;;27.82;19.28;99877.50;1777333;79;22183;-65
2021/05/06 14:19:13;;;;;;;5.12;1.60;;;;;;;28.91;18.68;99885.85;1775259;80;21242;-61
2021/05/06 14:21:47;;;;;;;2.95;0.93;;;;;;;29.81;17.90;99880.63;1778260;80;21163;-64
2021/05/06 14:24:14;;;;;;;3.40;1.10;;;;;;;30.56;16.74;99876.34;1779762;78;21156;-62
2021/05/06 14:26:46;;;;;;;4.08;1.22;;;;;;;30.86;15.95;99871.22;1773267;80;21615;-61
2021/05/06 14:29:15;;;;;;;3.70;1.07;;;;;;;30.98;16.41;99875.87;1749684;80;21226;-62
2021/05/06 14:31:43;;;;;;;2.75;1.00;;;;;;;31.42;15.68;99875.84;1774555;80;21215;-61
2021/05/06 14:34:11;;;;;;;3.22;1.17;;;;;;;31.67;15.11;99885.90;1773326;78;21179;-61
2021/05/06 14:36:38;;;;;;;5.87;1.25;;;;;;;31.19;15.64;99873.17;1754480;80;21156;-62
2021/05/06 14:39:08;;;;;;;3.62;1.00;;;;;;;30.05;15.36;99888.34;1777769;80;21152;-65
2021/05/06 14:41:37;;;;;;;2.60;0.88;;;;;;;28.38;16.67;99886.91;1770597;79;21206;-58
2021/05/06 14:44:05;;;;;;;3.40;0.70;;;;;;;26.78;17.81;99884.19;1770552;80;21148;-60
2021/05/06 14:46:33;;;;;;;4.05;1.10;;;;;;;25.55;19.27;99894.53;1778691;80;21168;-63
2021/05/06 14:49:00;;;;;;;2.12;0.82;;;;;;;25.36;19.70;99892.47;1776459;79;21136;-64
2021/05/06 14:51:28;;;;;;;3.37;0.95;;;;;;;25.99;19.64;99886.11;1781186;80;21144;-63
2021/05/06 14:53:55;;;;;;;3.37;0.95;;;;;;;27.02;18.39;99885.71;1777051;78;21685;-62
2021/05/06 14:56:23;;;;;;;3.20;1.02;;;;;;;27.94;18.09;99882.83;1770104;80;21215;-62
2021/05/06 14:58:50;;;;;;;3.60;0.85;;;;;;;28.60;16.62;99877.44;1776519;78;21211;-67
2021/05/06 15:01:17;;;;;;;9.78;1.67;;;;;;;28.88;15.97;99879.59;1748354;80;21202;-71
2021/05/06 15:03:45;;;;;;;3.17;0.82;;;;;;;28.92;15.37;99905.10;1779341;80;21231;-63
2021/05/06 15:06:13;;;;;;;2.60;0.93;;;;;;;28.74;14.69;99901.39;1777197;80;21262;-65
2021/05/06 15:08:43;;;;;;;2.42;0.98;;;;;;;28.40;14.22;99906.41;1740810;78;21211;-65
2021/05/06 15:11:12;;;;;;;1.70;0.68;;;;;;;28.16;14.63;99896.39;1759098;80;21159;-66
2021/05/06 15:13:39;;;;;;;3.02;0.93;;;;;;;28.16;14.74;99898.55;1745272;80;21230;-65
2021/05/06 15:16:06;;;;;;;3.65;1.50;;;;;;;28.24;14.60;99902.68;1746744;80;21242;-62
2021/05/06 15:18:34;;;;;;;3.55;1.32;;;;;;;28.35;14.80;99907.70;1755670;80;21152;-64
2021/05/06 15:21:02;;;;;;;2.70;0.80;;;;;;;28.68;15.05;99899.16;1780659;78;21128;-64